Time;durP1;ratioP1;P1;durP2;ratioP2;P2;SDS_P1;SDS_P2;PMS_P1;PMS_P2;Temp;Humidity;BMP_temperature;BMP_pressure;BME280_temperature;BME280_humidity;BME280_pressure;Samples;Min_cycle;Max_cycle;Signal;HPM_P1;HPM_P2
2021/01/01 00:00:51;;;;;;;57.37;41.70;;;4.60;99.90;;;;;;5091833;28;20494;-29
2021/01/01 00:03:18;;;;;;;66.50;43.40;;;4.50;99.90;;;;;;5094966;28;20446;-28
2021/01/01 00:05:45;;;;;;;60.57;41.10;;;4.60;99.90;;;;;;5093577;28;20492;-28
2021/01/01 00:08:12;;;;;;;60.80;43.63;;;4.50;99.90;;;;;;5094702;28;20526;-27
2021/01/01 00:10:39;;;;;;;60.63;38.97;;;4.40;99.90;;;;;;5095060;28;20886;-27
2021/01/01 00:13:06;;;;;;;51.37;35.77;;;4.40;99.90;;;;;;5094269;28;20440;-29
2021/01/01 00:15:32;;;;;;;36.03;26.57;;;4.40;99.90;;;;;;5093205;28;20964;-28
2021/01/01 00:18:09;;;;;;;31.30;22.77;;;4.40;99.90;;;;;;5093988;28;21032;-29
2021/01/01 00:20:41;;;;;;;50.70;33.80;;;4.40;99.90;;;;;;5094416;28;20447;-27
2021/01/01 00:23:10;;;;;;;22.20;16.70;;;4.50;99.90;;;;;;5093480;28;20454;-27
2021/01/01 00:25:38;;;;;;;25.40;19.87;;;4.40;99.90;;;;;;5093965;28;20451;-27
2021/01/01 00:28:05;;;;;;;27.30;20.20;;;4.30;99.90;;;;;;5093726;28;20451;-29
2021/01/01 00:30:31;;;;;;;38.80;25.47;;;4.20;99.90;;;;;;5098403;28;20450;-30
2021/01/01 00:32:59;;;;;;;40.20;27.87;;;4.20;99.90;;;;;;5110901;28;20482;-27
2021/01/01 00:35:26;;;;;;;44.83;29.50;;;4.10;99.90;;;;;;5113683;28;20435;-29
2021/01/01 00:37:53;;;;;;;47.50;31.73;;;4.00;99.90;;;;;;5113235;28;20450;-28
2021/01/01 00:40:23;;;;;;;41.43;27.43;;;4.00;99.90;;;;;;5111929;27;20443;-27
2021/01/01 00:42:50;;;;;;;39.30;26.33;;;3.90;99.90;;;;;;5133814;27;20498;-28
2021/01/01 00:45:18;;;;;;;55.20;30.43;;;4.00;99.90;;;;;;5133689;27;20445;-29
2021/01/01 00:47:47;;;;;;;40.87;27.30;;;4.00;99.90;;;;;;5133839;27;20426;-28
2021/01/01 00:50:16;;;;;;;39.77;26.97;;;4.10;99.90;;;;;;5133106;27;20514;-28
2021/01/01 00:52:43;;;;;;;27.83;19.77;;;4.00;99.90;;;;;;5135260;27;20430;-29
2021/01/01 00:55:10;;;;;;;30.23;20.13;;;4.00;99.90;;;;;;5135464;27;20850;-26
2021/01/01 00:57:38;;;;;;;19.47;15.37;;;3.90;99.90;;;;;;5134751;27;20501;-28
2021/01/01 01:00:07;;;;;;;26.00;17.13;;;3.90;99.90;;;;;;5134780;27;20521;-30
2021/01/01 01:02:35;;;;;;;31.37;20.80;;;3.80;99.90;;;;;;5133151;27;20475;-28
2021/01/01 01:05:02;;;;;;;23.10;16.80;;;3.80;99.90;;;;;;5135028;27;20828;-27
2021/01/01 01:07:29;;;;;;;22.67;18.40;;;3.70;99.90;;;;;;5132101;27;20554;-28
2021/01/01 01:09:57;;;;;;;29.97;20.70;;;3.70;99.90;;;;;;5135310;27;20487;-28
2021/01/01 01:12:24;;;;;;;33.83;21.83;;;3.70;99.90;;;;;;5133806;27;20839;-29
2021/01/01 01:14:52;;;;;;;31.77;25.17;;;3.70;99.90;;;;;;5134800;27;20438;-30
2021/01/01 01:17:20;;;;;;;35.50;25.03;;;3.70;99.90;;;;;;5134115;27;20461;-29
2021/01/01 01:19:48;;;;;;;39.20;24.37;;;3.70;99.90;;;;;;5133689;27;20438;-29
2021/01/01 01:22:16;;;;;;;35.50;24.00;;;3.80;99.90;;;;;;5134045;27;20734;-31
2021/01/01 01:24:43;;;;;;;37.10;26.57;;;3.90;99.90;;;;;;5133467;27;20434;-27
2021/01/01 01:27:11;;;;;;;36.47;26.03;;;3.90;99.90;;;;;;5133755;27;20534;-27
2021/01/01 01:29:39;;;;;;;40.10;25.97;;;4.00;99.90;;;;;;5133560;27;20442;-28
2021/01/01 01:32:07;;;;;;;47.83;31.20;;;4.00;99.90;;;;;;5134280;27;20462;-28
2021/01/01 01:34:35;;;;;;;44.10;29.97;;;4.00;99.90;;;;;;5133624;27;20439;-28
2021/01/01 01:37:01;;;;;;;39.17;27.97;;;4.00;99.90;;;;;;5133463;27;21121;-28
2021/01/01 01:39:28;;;;;;;36.13;23.77;;;4.10;99.90;;;;;;5133119;27;20690;-27
2021/01/01 01:41:55;;;;;;;34.30;23.20;;;4.20;99.90;;;;;;5133961;27;20460;-28
2021/01/01 01:44:23;;;;;;;32.67;23.03;;;4.20;99.90;;;;;;5133455;27;21206;-28
2021/01/01 01:46:53;;;;;;;31.53;22.73;;;4.20;99.90;;;;;;5132098;27;20450;-29
2021/01/01 01:49:22;;;;;;;31.07;20.33;;;4.10;99.90;;;;;;5133544;27;20449;-28
2021/01/01 01:51:54;;;;;;;29.57;21.57;;;4.20;99.90;;;;;;5132343;27;20433;-28
2021/01/01 01:54:22;;;;;;;25.87;19.37;;;4.20;99.90;;;;;;5133197;27;21003;-27
2021/01/01 01:56:52;;;;;;;26.87;20.40;;;4.20;99.90;;;;;;5133294;27;20508;-28
2021/01/01 01:59:21;;;;;;;28.33;20.20;;;4.20;99.90;;;;;;5133693;27;20499;-27
2021/01/01 02:01:48;;;;;;;21.47;16.43;;;4.20;99.90;;;;;;5132753;27;20855;-28
2021/01/01 02:04:15;;;;;;;22.10;16.53;;;4.30;99.90;;;;;;5134529;27;20514;-28
2021/01/01 02:06:45;;;;;;;20.33;16.23;;;4.30;99.90;;;;;;5133190;27;20508;-29
2021/01/01 02:09:13;;;;;;;14.90;13.33;;;4.40;99.90;;;;;;5133143;27;20839;-27
2021/01/01 02:11:43;;;;;;;19.93;15.77;;;4.50;99.90;;;;;;5133340;27;20529;-28
2021/01/01 02:14:10;;;;;;;17.23;14.50;;;4.50;99.90;;;;;;5133784;27;20499;-28
2021/01/01 02:16:40;;;;;;;20.80;14.63;;;4.50;99.90;;;;;;5132978;27;20466;-28
2021/01/01 02:19:07;;;;;;;19.07;13.97;;;4.50;99.90;;;;;;5132122;27;20458;-28
2021/01/01 02:21:40;;;;;;;18.93;13.80;;;4.50;99.90;;;;;;5132936;27;20478;-27
2021/01/01 02:24:08;;;;;;;18.50;14.40;;;4.50;99.90;;;;;;5132794;27;20503;-28
2021/01/01 02:26:36;;;;;;;18.50;14.27;;;4.50;99.90;;;;;;5132726;27;20986;-28
2021/01/01 02:29:04;;;;;;;19.67;13.80;;;4.50;99.90;;;;;;5131865;27;20445;-28
2021/01/01 02:31:32;;;;;;;16.03;13.37;;;4.40;99.90;;;;;;5133393;27;20529;-27
2021/01/01 02:33:59;;;;;;;16.80;12.80;;;4.40;99.90;;;;;;5133184;27;20534;-29
2021/01/01 02:36:27;;;;;;;14.83;11.93;;;4.40;99.90;;;;;;5132417;27;21044;-28
2021/01/01 02:38:55;;;;;;;14.80;12.03;;;4.40;99.90;;;;;;5133211;27;20500;-28
2021/01/01 02:41:22;;;;;;;15.60;12.00;;;4.30;99.90;;;;;;5133071;27;20442;-27
2021/01/01 02:43:49;;;;;;;14.23;11.30;;;4.30;99.90;;;;;;5133324;27;20454;-28
2021/01/01 02:46:16;;;;;;;17.27;11.93;;;4.30;99.90;;;;;;5132533;27;20885;-28
2021/01/01 02:48:44;;;;;;;14.00;10.83;;;4.30;99.90;;;;;;5132913;27;20889;-28
2021/01/01 02:51:11;;;;;;;16.30;11.87;;;4.30;99.90;;;;;;5132609;27;20508;-29
2021/01/01 02:53:39;;;;;;;16.40;13.07;;;4.40;99.90;;;;;;5132813;27;20424;-27
2021/01/01 02:56:06;;;;;;;18.27;13.60;;;4.30;99.90;;;;;;5132728;27;20542;-29
2021/01/01 02:58:35;;;;;;;16.63;11.87;;;4.30;99.90;;;;;;5132852;27;20751;-28
2021/01/01 03:01:02;;;;;;;14.17;11.03;;;4.30;99.90;;;;;;5132721;27;20898;-27
2021/01/01 03:03:30;;;;;;;13.50;11.80;;;4.30;99.90;;;;;;5132014;27;20525;-28
2021/01/01 03:05:57;;;;;;;16.87;12.73;;;4.30;99.90;;;;;;5132529;27;20521;-28
2021/01/01 03:08:24;;;;;;;19.43;13.63;;;4.40;99.90;;;;;;5132522;27;20445;-28
2021/01/01 03:10:52;;;;;;;16.50;12.10;;;4.40;99.90;;;;;;5133774;27;20555;-28
2021/01/01 03:13:19;;;;;;;14.07;10.17;;;4.40;99.90;;;;;;5133551;27;20457;-28
2021/01/01 03:15:47;;;;;;;12.40;11.07;;;4.40;99.90;;;;;;5137548;27;21149;-29
2021/01/01 03:18:15;;;;;;;12.03;10.13;;;4.50;99.90;;;;;;5154016;27;20535;-28
2021/01/01 03:20:42;;;;;;;13.70;10.03;;;4.50;99.90;;;;;;5153992;27;20497;-28
2021/01/01 03:23:10;;;;;;;16.30;10.63;;;4.50;99.90;;;;;;5154376;27;20516;-28
2021/01/01 03:25:37;;;;;;;12.10;9.33;;;4.60;99.90;;;;;;5154046;27;20524;-28
2021/01/01 03:28:05;;;;;;;10.80;9.00;;;4.50;99.90;;;;;;5154109;27;20516;-28
2021/01/01 03:30:31;;;;;;;10.63;9.27;;;4.60;99.90;;;;;;5154104;27;20448;-27
2021/01/01 03:33:00;;;;;;;11.17;10.07;;;4.60;99.90;;;;;;5153423;27;20910;-28
2021/01/01 03:35:27;;;;;;;9.73;8.87;;;4.60;99.90;;;;;;5153904;27;20505;-27
2021/01/01 03:37:55;;;;;;;10.00;9.00;;;4.70;99.90;;;;;;5157166;27;20877;-27
2021/01/01 03:40:22;;;;;;;9.67;8.17;;;4.70;99.90;;;;;;5157867;27;20581;-27
2021/01/01 03:42:50;;;;;;;9.83;8.77;;;4.70;99.90;;;;;;5157875;27;20448;-28
2021/01/01 03:45:16;;;;;;;11.60;9.47;;;4.70;99.90;;;;;;5157808;27;20457;-28
2021/01/01 03:47:44;;;;;;;11.43;9.00;;;4.70;99.90;;;;;;5157811;27;20528;-30
2021/01/01 03:50:12;;;;;;;11.07;9.00;;;4.80;99.90;;;;;;5156496;27;20437;-30
2021/01/01 03:52:40;;;;;;;9.50;8.50;;;4.80;99.90;;;;;;5157631;27;20566;-27
2021/01/01 03:55:11;;;;;;;9.30;8.40;;;4.80;99.90;;;;;;5158076;27;20521;-28
2021/01/01 03:57:40;;;;;;;10.47;8.80;;;4.90;99.90;;;;;;5157353;27;20465;-27
2021/01/01 04:00:08;;;;;;;10.70;8.70;;;4.90;99.90;;;;;;5157429;27;20492;-29
2021/01/01 04:02:42;;;;;;;10.13;8.30;;;4.80;99.90;;;;;;5157058;27;20492;-27
2021/01/01 04:05:10;;;;;;;12.63;8.70;;;4.80;99.90;;;;;;5156461;27;20460;-28
2021/01/01 04:07:38;;;;;;;9.20;7.70;;;4.70;99.90;;;;;;5157180;27;20786;-27
2021/01/01 04:10:06;;;;;;;8.80;7.87;;;4.70;99.90;;;;;;5157134;27;20857;-28
2021/01/01 04:12:34;;;;;;;9.57;8.60;;;4.70;99.90;;;;;;5157066;27;20535;-28
2021/01/01 04:15:01;;;;;;;9.90;8.90;;;4.70;99.90;;;;;;5156620;27;20481;-29
2021/01/01 04:17:28;;;;;;;9.47;7.93;;;4.60;99.90;;;;;;5141786;27;20535;-27
2021/01/01 04:19:55;;;;;;;8.40;7.60;;;4.70;99.90;;;;;;5135513;27;20465;-28
2021/01/01 04:22:23;;;;;;;9.07;7.90;;;4.70;99.90;;;;;;5135917;27;20584;-28
2021/01/01 04:24:51;;;;;;;8.07;7.27;;;4.80;99.90;;;;;;5135658;27;20514;-28
2021/01/01 04:27:19;;;;;;;9.20;8.30;;;4.80;99.90;;;;;;5135510;27;20449;-27
2021/01/01 04:29:46;;;;;;;10.33;9.13;;;4.80;99.90;;;;;;5135746;27;20924;-27
2021/01/01 04:32:13;;;;;;;10.10;8.93;;;4.90;99.90;;;;;;5134316;27;20464;-27
2021/01/01 04:34:40;;;;;;;11.23;8.30;;;4.90;99.90;;;;;;5133915;27;20461;-28
2021/01/01 04:37:08;;;;;;;8.73;7.80;;;4.90;99.90;;;;;;5134174;27;20951;-28
2021/01/01 04:39:34;;;;;;;9.80;8.63;;;4.90;99.90;;;;;;5134341;27;20448;-27
2021/01/01 04:42:06;;;;;;;13.13;10.23;;;4.80;99.90;;;;;;5132835;27;20910;-28
2021/01/01 04:44:33;;;;;;;13.50;10.30;;;4.80;99.90;;;;;;5134523;27;20433;-28
2021/01/01 04:47:03;;;;;;;18.20;12.63;;;4.80;99.90;;;;;;5133516;27;20430;-28
2021/01/01 04:49:32;;;;;;;17.90;13.27;;;4.80;99.90;;;;;;5134489;27;20446;-29
2021/01/01 04:52:02;;;;;;;17.07;11.40;;;4.80;99.90;;;;;;5133578;27;20430;-27
2021/01/01 04:54:33;;;;;;;22.13;10.93;;;4.80;99.90;;;;;;5134466;27;20430;-28
2021/01/01 04:57:00;;;;;;;17.07;12.63;;;4.80;99.90;;;;;;5134853;27;20513;-28
2021/01/01 04:59:28;;;;;;;17.30;11.20;;;4.90;99.90;;;;;;5135039;27;20490;-29
2021/01/01 05:01:56;;;;;;;13.57;9.50;;;4.90;99.90;;;;;;5134754;27;20434;-28
2021/01/01 05:04:23;;;;;;;15.13;11.00;;;4.90;99.90;;;;;;5135154;27;20442;-27
2021/01/01 05:06:51;;;;;;;17.20;11.10;;;5.00;99.90;;;;;;5135060;27;20431;-27
2021/01/01 05:09:19;;;;;;;11.80;10.53;;;5.00;99.90;;;;;;5134297;27;20445;-28
2021/01/01 05:11:47;;;;;;;17.07;11.83;;;4.90;99.90;;;;;;5134416;27;20430;-29
2021/01/01 05:14:14;;;;;;;12.67;11.00;;;4.90;99.90;;;;;;5133637;27;20461;-27
2021/01/01 05:16:52;;;;;;;11.33;10.13;;;4.90;99.90;;;;;;5133810;27;20458;-30
2021/01/01 05:19:18;;;;;;;11.83;10.73;;;4.90;99.90;;;;;;5134316;27;20753;-27
2021/01/01 05:21:46;;;;;;;11.27;9.40;;;4.90;99.90;;;;;;5133884;27;20426;-27
2021/01/01 05:24:16;;;;;;;11.63;9.60;;;4.90;99.90;;;;;;5133947;27;20954;-28
2021/01/01 05:26:48;;;;;;;12.60;9.67;;;5.00;99.90;;;;;;5134442;27;20565;-28
2021/01/01 05:29:21;;;;;;;13.00;11.40;;;5.00;99.90;;;;;;5142348;27;20508;-28
2021/01/01 05:31:50;;;;;;;12.50;10.37;;;5.00;99.90;;;;;;5155351;27;20433;-28
2021/01/01 05:34:20;;;;;;;10.90;9.40;;;5.00;99.90;;;;;;5155023;27;20433;-28
2021/01/01 05:36:48;;;;;;;16.10;11.40;;;5.00;99.90;;;;;;5154767;27;20468;-28
2021/01/01 05:39:23;;;;;;;18.30;14.13;;;5.00;99.90;;;;;;5154111;27;20464;-27
2021/01/01 05:41:52;;;;;;;19.83;13.93;;;5.00;99.90;;;;;;5154703;27;20460;-27
2021/01/01 05:44:21;;;;;;;21.33;15.27;;;5.00;99.90;;;;;;5154212;27;20449;-30
2021/01/01 05:47:00;;;;;;;17.60;14.27;;;5.00;99.90;;;;;;5154628;27;21057;-27
2021/01/01 05:49:29;;;;;;;20.60;15.93;;;5.10;99.90;;;;;;5153551;27;20437;-30
2021/01/01 05:52:22;;;;;;;18.87;14.00;;;5.10;99.90;;;;;;5153932;27;20460;-31
2021/01/01 05:54:50;;;;;;;12.50;9.90;;;5.00;99.90;;;;;;5119611;27;20493;-28
2021/01/01 05:57:20;;;;;;;10.40;8.93;;;5.00;99.90;;;;;;5134373;27;20510;-28
2021/01/01 05:59:48;;;;;;;10.27;9.17;;;4.90;99.90;;;;;;5133788;27;20514;-28
2021/01/01 06:02:16;;;;;;;12.13;10.60;;;4.80;99.90;;;;;;5134438;27;20853;-27
2021/01/01 06:04:45;;;;;;;12.90;9.00;;;4.70;99.90;;;;;;5133458;27;20436;-28
2021/01/01 06:07:12;;;;;;;10.90;9.43;;;4.70;99.90;;;;;;5133313;27;20521;-30
2021/01/01 06:09:40;;;;;;;11.03;9.50;;;4.70;99.90;;;;;;5133034;27;20558;-28
2021/01/01 06:12:08;;;;;;;9.33;8.20;;;4.70;99.90;;;;;;5133626;27;20446;-27
2021/01/01 06:14:41;;;;;;;15.00;9.83;;;4.70;99.90;;;;;;5133517;27;20484;-28
2021/01/01 06:17:19;;;;;;;11.73;9.23;;;4.90;99.90;;;;;;5133663;27;20478;-28
2021/01/01 06:19:50;;;;;;;11.77;9.20;;;4.80;99.90;;;;;;5130552;27;20596;-29
2021/01/01 06:22:19;;;;;;;12.77;11.03;;;4.80;99.90;;;;;;5133983;27;20472;-28
2021/01/01 06:24:54;;;;;;;11.10;8.83;;;4.80;99.90;;;;;;5133564;27;21048;-28
2021/01/01 06:27:23;;;;;;;11.00;8.90;;;4.90;99.90;;;;;;5133156;27;20430;-29
2021/01/01 06:29:53;;;;;;;12.00;9.20;;;4.90;99.90;;;;;;5114176;27;20787;-27
2021/01/01 06:32:24;;;;;;;10.70;9.57;;;5.00;99.90;;;;;;5133773;27;20996;-27
2021/01/01 06:34:52;;;;;;;14.43;10.87;;;5.00;99.90;;;;;;5132975;27;20557;-28
2021/01/01 06:37:39;;;;;;;15.90;10.10;;;4.90;99.90;;;;;;5133091;27;21035;-27
2021/01/01 06:40:07;;;;;;;12.27;10.23;;;4.90;99.90;;;;;;5133761;27;20516;-28
2021/01/01 06:42:52;;;;;;;13.63;10.50;;;4.90;99.90;;;;;;5133554;27;20442;-27
2021/01/01 06:45:42;;;;;;;12.70;10.80;;;4.90;99.90;;;;;;5150823;27;20485;-27
2021/01/01 06:48:11;;;;;;;12.87;9.80;;;4.90;99.90;;;;;;5154288;27;20874;-28
2021/01/01 06:50:42;;;;;;;13.93;10.07;;;5.00;99.90;;;;;;5153020;27;20445;-29
2021/01/01 06:53:10;;;;;;;13.67;11.17;;;5.00;99.90;;;;;;5152757;27;20442;-28
2021/01/01 06:55:40;;;;;;;15.43;11.53;;;5.10;99.90;;;;;;5153612;27;20432;-28
2021/01/01 06:58:09;;;;;;;16.90;12.67;;;5.10;99.90;;;;;;5153092;27;20457;-29
2021/01/01 07:00:55;;;;;;;15.27;12.40;;;5.20;99.90;;;;;;5152528;27;21050;-28
2021/01/01 07:03:31;;;;;;;20.17;13.90;;;5.20;99.90;;;;;;5152403;27;20440;-28
2021/01/01 07:06:34;;;;;;;18.10;13.33;;;5.20;99.90;;;;;;5152350;27;20479;-28
2021/01/01 07:09:07;;;;;;;13.73;11.70;;;5.20;99.90;;;;;;5152406;27;21005;-28
2021/01/01 07:11:39;;;;;;;13.33;11.93;;;5.10;99.90;;;;;;5151553;27;20862;-28
2021/01/01 07:14:08;;;;;;;14.37;11.73;;;5.00;99.90;;;;;;5151793;27;20510;-29
2021/01/01 07:16:37;;;;;;;13.07;10.63;;;4.90;99.90;;;;;;5153132;27;20566;-27
2021/01/01 07:19:06;;;;;;;11.03;9.00;;;4.80;99.90;;;;;;5153347;27;20476;-29
2021/01/01 07:21:33;;;;;;;12.00;10.13;;;4.80;99.90;;;;;;5152849;27;20551;-27
2021/01/01 07:24:00;;;;;;;15.10;11.00;;;4.80;99.90;;;;;;5143020;27;20951;-28
2021/01/01 07:26:28;;;;;;;15.10;11.10;;;4.70;99.90;;;;;;5132383;28;20499;-27
2021/01/01 07:29:00;;;;;;;19.00;11.17;;;4.70;99.90;;;;;;5133094;28;20833;-27
2021/01/01 07:31:27;;;;;;;12.67;10.80;;;4.60;99.90;;;;;;5132219;28;20442;-28
2021/01/01 07:33:56;;;;;;;15.87;10.90;;;4.70;99.90;;;;;;5131311;28;20460;-28
2021/01/01 07:36:24;;;;;;;16.90;11.70;;;4.70;99.90;;;;;;5131808;28;20437;-28
2021/01/01 07:38:51;;;;;;;15.37;11.73;;;4.70;99.90;;;;;;5132497;28;20886;-28
2021/01/01 07:41:22;;;;;;;15.70;12.07;;;4.80;99.90;;;;;;5132549;28;20719;-27
2021/01/01 07:43:50;;;;;;;13.10;11.37;;;4.90;99.90;;;;;;5131999;28;20828;-28
2021/01/01 07:46:17;;;;;;;19.63;13.60;;;4.90;99.90;;;;;;5131699;28;21140;-28
2021/01/01 07:48:44;;;;;;;16.93;12.83;;;4.90;99.90;;;;;;5129529;28;20533;-28
2021/01/01 07:51:11;;;;;;;21.50;13.43;;;5.00;99.90;;;;;;5131100;28;20445;-27
2021/01/01 07:53:40;;;;;;;18.37;14.23;;;4.90;99.90;;;;;;5131216;28;20438;-28
2021/01/01 07:56:09;;;;;;;19.93;14.93;;;5.00;99.90;;;;;;5130564;28;20879;-30
2021/01/01 07:58:38;;;;;;;22.30;16.20;;;5.00;99.90;;;;;;5111987;28;20491;-27
2021/01/01 08:01:06;;;;;;;20.00;16.17;;;5.10;99.90;;;;;;5110613;28;20460;-28
2021/01/01 08:03:34;;;;;;;17.37;13.73;;;5.10;99.90;;;;;;5109827;28;20451;-29
2021/01/01 08:06:02;;;;;;;31.70;19.13;;;5.10;99.90;;;;;;5111536;28;20439;-28
2021/01/01 08:08:28;;;;;;;18.10;14.03;;;5.00;99.90;;;;;;5111336;28;20431;-28
2021/01/01 08:10:57;;;;;;;19.43;15.60;;;5.00;99.90;;;;;;5109594;28;20462;-27
2021/01/01 08:13:25;;;;;;;23.23;14.97;;;5.00;99.90;;;;;;5113791;27;20546;-28
2021/01/01 08:15:53;;;;;;;16.97;13.17;;;5.00;99.90;;;;;;5149604;27;20501;-28
2021/01/01 08:18:23;;;;;;;20.60;15.37;;;5.00;99.90;;;;;;5151305;27;20768;-29
2021/01/01 08:20:57;;;;;;;22.60;15.70;;;5.00;99.90;;;;;;5150310;27;20487;-29
2021/01/01 08:23:25;;;;;;;19.13;14.10;;;5.00;99.90;;;;;;5154358;27;20436;-29
2021/01/01 08:25:54;;;;;;;22.20;13.53;;;4.90;99.90;;;;;;5155069;27;20475;-27
2021/01/01 08:28:23;;;;;;;22.20;14.57;;;4.90;99.90;;;;;;5155812;27;20815;-28
2021/01/01 08:30:56;;;;;;;23.13;17.10;;;4.90;99.90;;;;;;5154798;27;20481;-28
2021/01/01 08:33:26;;;;;;;19.83;13.87;;;4.90;99.90;;;;;;5156552;27;20453;-27
2021/01/01 08:36:03;;;;;;;22.47;14.57;;;4.80;99.90;;;;;;5141100;27;20457;-28
2021/01/01 08:38:31;;;;;;;43.07;33.60;;;4.90;99.90;;;;;;5134685;27;20567;-28
2021/01/01 08:40:58;;;;;;;19.90;13.23;;;4.90;99.90;;;;;;5133883;27;20499;-28
2021/01/01 08:43:31;;;;;;;30.60;21.20;;;4.90;99.90;;;;;;5134569;27;20493;-28
2021/01/01 08:45:58;;;;;;;20.00;14.23;;;4.80;99.90;;;;;;5133582;27;20430;-28
2021/01/01 08:48:29;;;;;;;18.37;12.03;;;4.80;99.90;;;;;;5133540;27;20442;-28
2021/01/01 08:50:56;;;;;;;13.87;9.40;;;4.70;99.90;;;;;;5133270;27;20633;-27
2021/01/01 08:53:24;;;;;;;14.00;10.60;;;4.70;99.90;;;;;;5133371;27;20456;-30
2021/01/01 08:55:59;;;;;;;16.63;10.10;;;4.70;99.90;;;;;;5132477;27;20434;-27
2021/01/01 08:58:27;;;;;;;12.63;10.47;;;4.70;99.90;;;;;;5132769;27;20576;-27
2021/01/01 09:00:55;;;;;;;12.90;11.23;;;4.60;99.90;;;;;;5131512;27;20974;-26
2021/01/01 09:03:23;;;;;;;12.07;10.30;;;4.60;99.90;;;;;;5132827;27;20483;-28
2021/01/01 09:05:54;;;;;;;12.27;9.90;;;4.70;99.90;;;;;;5132800;27;20469;-28
2021/01/01 09:08:23;;;;;;;12.40;11.10;;;4.70;99.90;;;;;;5132323;27;20533;-27
2021/01/01 09:10:53;;;;;;;14.37;9.90;;;4.70;99.90;;;;;;5133339;27;20422;-28
2021/01/01 09:13:24;;;;;;;14.23;11.53;;;4.80;99.90;;;;;;5133182;27;20435;-28
2021/01/01 09:16:01;;;;;;;38.83;24.10;;;4.90;99.90;;;;;;5128888;27;20522;-27
2021/01/01 09:18:31;;;;;;;31.40;23.47;;;5.00;99.90;;;;;;5132699;27;20466;-28
2021/01/01 09:21:09;;;;;;;15.80;12.10;;;5.30;99.90;;;;;;5133331;27;20520;-28
2021/01/01 09:23:37;;;;;;;22.60;18.17;;;5.40;99.90;;;;;;5132605;27;20484;-29
2021/01/01 09:26:05;;;;;;;15.70;11.53;;;5.60;99.90;;;;;;5129551;27;20481;-27
2021/01/01 09:28:33;;;;;;;20.60;17.33;;;5.70;99.90;;;;;;5132155;27;20430;-28
2021/01/01 09:31:00;;;;;;;24.73;21.27;;;5.80;99.90;;;;;;5121161;27;20462;-27
2021/01/01 09:33:28;;;;;;;19.60;16.10;;;5.80;99.90;;;;;;5111289;28;20439;-29
2021/01/01 09:35:54;;;;;;;17.73;15.70;;;5.80;99.90;;;;;;5111312;28;20431;-28
2021/01/01 09:38:23;;;;;;;13.20;10.73;;;5.90;99.90;;;;;;5111226;28;20752;-29
2021/01/01 09:40:51;;;;;;;13.87;11.03;;;5.90;99.90;;;;;;5111651;28;20954;-28
2021/01/01 09:43:18;;;;;;;10.13;8.50;;;5.90;99.90;;;;;;5111533;28;20435;-28
2021/01/01 09:45:44;;;;;;;9.97;8.93;;;5.90;99.90;;;;;;5111204;28;20431;-29
2021/01/01 09:48:11;;;;;;;8.77;7.90;;;5.90;99.90;;;;;;5113272;28;20508;-29
2021/01/01 09:50:38;;;;;;;9.70;8.70;;;5.90;99.90;;;;;;5112111;28;20526;-28
2021/01/01 09:53:05;;;;;;;8.60;7.80;;;5.90;99.90;;;;;;5112249;28;20451;-28
2021/01/01 09:55:31;;;;;;;9.00;7.90;;;6.00;99.90;;;;;;5110265;28;20513;-30
2021/01/01 09:57:58;;;;;;;9.13;8.30;;;6.00;99.90;;;;;;5110472;28;20535;-29
2021/01/01 10:00:25;;;;;;;11.10;8.73;;;6.10;99.90;;;;;;5111902;28;20976;-29
2021/01/01 10:02:51;;;;;;;11.23;8.70;;;6.10;99.90;;;;;;5110702;28;20463;-30
2021/01/01 10:05:19;;;;;;;9.17;8.07;;;6.10;99.90;;;;;;5109961;28;21218;-29
2021/01/01 10:07:45;;;;;;;12.40;9.63;;;6.20;99.90;;;;;;5110027;28;20431;-29
2021/01/01 10:10:12;;;;;;;15.07;7.80;;;6.10;99.90;;;;;;5110753;28;20781;-29
2021/01/01 10:12:39;;;;;;;14.27;10.23;;;6.20;99.90;;;;;;5110920;28;20435;-28
2021/01/01 10:15:06;;;;;;;8.90;8.00;;;6.20;99.90;;;;;;5110920;28;20438;-28
2021/01/01 10:17:33;;;;;;;9.90;8.83;;;6.20;99.90;;;;;;5110707;28;20601;-29
2021/01/01 10:20:00;;;;;;;9.10;8.20;;;6.20;99.90;;;;;;5108683;28;20496;-29
2021/01/01 10:22:27;;;;;;;9.80;8.80;;;6.20;99.90;;;;;;5110067;28;20439;-30
2021/01/01 10:24:54;;;;;;;8.33;7.53;;;6.20;99.90;;;;;;5110266;28;20435;-29
2021/01/01 10:27:21;;;;;;;10.57;8.03;;;6.20;99.90;;;;;;5109601;28;20915;-28
2021/01/01 10:29:47;;;;;;;10.43;9.33;;;6.30;99.90;;;;;;5108976;28;20799;-28
2021/01/01 10:32:15;;;;;;;9.87;8.83;;;6.30;99.90;;;;;;5109411;28;20447;-30
2021/01/01 10:34:43;;;;;;;8.73;7.83;;;6.50;99.90;;;;;;5110637;28;20446;-30
2021/01/01 10:37:10;;;;;;;7.90;7.10;;;6.50;99.90;;;;;;5109414;28;20550;-29
2021/01/01 10:39:38;;;;;;;10.23;7.63;;;6.50;99.90;;;;;;5108832;28;20447;-29
2021/01/01 10:42:05;;;;;;;7.17;6.40;;;6.40;99.90;;;;;;5110777;28;20823;-28
2021/01/01 10:44:33;;;;;;;9.43;7.13;;;6.10;99.90;;;;;;5112833;28;20430;-29
2021/01/01 10:46:59;;;;;;;10.03;8.10;;;6.00;99.90;;;;;;5129229;27;20442;-29
2021/01/01 10:49:26;;;;;;;8.40;7.50;;;5.80;99.90;;;;;;5129961;27;20444;-28
2021/01/01 10:51:57;;;;;;;8.93;8.00;;;5.70;99.90;;;;;;5127350;27;20530;-29
2021/01/01 10:54:26;;;;;;;9.07;6.93;;;5.80;99.90;;;;;;5123113;27;20433;-30
2021/01/01 10:56:53;;;;;;;11.47;9.47;;;5.80;99.90;;;;;;5126634;27;20516;-29
2021/01/01 10:59:21;;;;;;;9.30;8.30;;;5.90;99.90;;;;;;5131425;27;21240;-29
2021/01/01 11:01:52;;;;;;;11.33;9.47;;;6.00;99.90;;;;;;5130465;27;20464;-29
2021/01/01 11:04:19;;;;;;;8.77;7.87;;;6.10;99.90;;;;;;5131231;27;20454;-28
2021/01/01 11:06:46;;;;;;;10.70;9.00;;;6.20;99.90;;;;;;5128242;27;20442;-28
2021/01/01 11:09:12;;;;;;;10.80;8.40;;;6.10;99.90;;;;;;5125931;27;20430;-29
2021/01/01 11:11:39;;;;;;;24.13;19.03;;;6.00;99.90;;;;;;5126548;27;20752;-28
2021/01/01 11:14:09;;;;;;;26.10;19.20;;;5.90;99.90;;;;;;5127067;27;20489;-29
2021/01/01 12:22:56;;;;;;;8.63;7.83;;;6.00;99.90;;;;;;5088057;28;20731;-31
2021/01/01 12:25:22;;;;;;;8.53;7.67;;;6.10;99.90;;;;;;5093307;27;20707;-29
2021/01/01 12:27:50;;;;;;;8.80;7.90;;;6.20;99.90;;;;;;5128934;27;20844;-28
2021/01/01 12:30:18;;;;;;;8.70;7.63;;;6.20;99.90;;;;;;5129301;27;20465;-29
2021/01/01 12:32:45;;;;;;;10.67;9.53;;;6.30;99.90;;;;;;5127553;27;20827;-29
2021/01/01 12:35:13;;;;;;;10.07;8.90;;;6.30;99.90;;;;;;5128346;27;20438;-29
2021/01/01 12:37:40;;;;;;;10.27;9.20;;;6.40;99.90;;;;;;5127368;27;20725;-28
2021/01/01 12:40:08;;;;;;;9.70;8.77;;;6.60;99.90;;;;;;5128962;27;20680;-29
2021/01/01 12:42:35;;;;;;;9.87;8.87;;;6.70;99.90;;;;;;5129029;27;20522;-29
2021/01/01 12:45:03;;;;;;;8.47;7.60;;;6.80;99.90;;;;;;5127652;27;20438;-28
2021/01/01 12:47:31;;;;;;;10.33;8.40;;;6.80;99.90;;;;;;5129768;27;20723;-29
2021/01/01 12:49:58;;;;;;;11.67;8.67;;;6.80;99.90;;;;;;5127836;27;20441;-28
2021/01/01 12:52:25;;;;;;;9.80;8.87;;;6.70;99.90;;;;;;5126457;27;20446;-29
2021/01/01 12:54:52;;;;;;;8.87;7.97;;;6.60;99.90;;;;;;5127804;27;20566;-28
2021/01/01 12:57:18;;;;;;;8.90;8.10;;;6.50;99.90;;;;;;5127509;27;20491;-28
2021/01/01 12:59:45;;;;;;;10.40;9.27;;;6.60;99.90;;;;;;5126357;27;20503;-29
2021/01/01 13:02:12;;;;;;;9.17;8.23;;;6.60;99.90;;;;;;5128063;27;20460;-28
2021/01/01 13:04:38;;;;;;;9.33;8.10;;;6.50;99.90;;;;;;5129154;27;20472;-28
2021/01/01 13:07:05;;;;;;;10.10;8.33;;;6.50;99.90;;;;;;5127305;27;20438;-29
2021/01/01 13:09:32;;;;;;;8.90;7.80;;;6.60;99.90;;;;;;5126271;27;20426;-29
2021/01/01 13:11:59;;;;;;;9.37;8.57;;;6.60;99.90;;;;;;5126082;27;20434;-27
2021/01/01 13:14:25;;;;;;;10.77;9.03;;;6.60;99.90;;;;;;5125887;27;20781;-28
2021/01/01 13:16:52;;;;;;;9.20;8.30;;;6.60;99.90;;;;;;5107600;27;20487;-28
2021/01/01 13:19:19;;;;;;;8.57;7.77;;;6.60;99.90;;;;;;5127047;27;20637;-28
2021/01/01 13:21:45;;;;;;;8.37;7.57;;;6.60;99.90;;;;;;5109607;27;20446;-27
2021/01/01 13:24:12;;;;;;;8.67;7.47;;;6.60;99.90;;;;;;5128254;27;20430;-28
2021/01/01 13:26:39;;;;;;;8.17;7.40;;;6.70;99.90;;;;;;5129346;27;20492;-28
2021/01/01 13:29:06;;;;;;;9.20;8.40;;;6.70;99.90;;;;;;5127691;27;20839;-28
2021/01/01 13:31:34;;;;;;;8.47;7.47;;;6.70;99.90;;;;;;5129940;27;20434;-28
2021/01/01 13:34:01;;;;;;;8.03;7.23;;;6.70;99.90;;;;;;5129382;27;20748;-29
2021/01/01 13:36:28;;;;;;;9.43;8.10;;;6.80;99.90;;;;;;5130410;27;20446;-28
2021/01/01 13:38:54;;;;;;;8.80;7.97;;;6.90;99.90;;;;;;5128277;27;20469;-26
2021/01/01 13:41:21;;;;;;;9.63;8.73;;;6.90;99.90;;;;;;5130147;27;20878;-27
2021/01/01 13:43:48;;;;;;;8.40;7.57;;;7.00;99.90;;;;;;5130154;27;20430;-27
2021/01/01 13:46:22;;;;;;;13.13;11.77;;;7.00;99.90;;;;;;5129758;27;20618;-28
2021/01/01 13:48:49;;;;;;;9.47;8.53;;;7.00;99.90;;;;;;5128221;27;20967;-27
2021/01/01 13:51:17;;;;;;;9.57;8.60;;;7.00;99.90;;;;;;5127687;27;20506;-28
2021/01/01 13:53:43;;;;;;;10.47;9.57;;;7.00;99.90;;;;;;5126894;27;20521;-28
2021/01/01 13:56:15;;;;;;;10.30;8.90;;;7.00;99.90;;;;;;5127131;27;20438;-26